Aérodrome :
LOGIN :

S'inscrire | Disclaimer

   EN    FR    IT 

 










Légende :    VFR   VFR Marginal   IFR   IFR Intensif   IFR Très Intensif
Visi : 
Plafond : 
>= 8 km
>= 3000ft
5 à 8 km
1000 à 3000 ft
1500m à 5 km
500 à 1000 ft
800 à 1500m
200 à 500 ft
< 800m
< 200 ft
Symboles :   Orages  Brouillard  Fortes neiges  Fortes précipitations  Vent > 20 kt
SIGMETs :   Divers  Orages  Givrage  Turbulence  Onde Orograph.  Cendres Volcan.







- Altitude de l'aérodrome : 1000 ft
- Code IATA : PEV


LHPP - Pécs Pogany

DERNIER METAR :
  • 241015Z 34009KT 9999 SCT033 19/11 Q1014

METARs EXPIRÉS :
  • 240945Z 34007KT 9999 SCT030 19/12 Q1014
  • 240915Z 33007KT 9999 SCT030 18/10 Q1014
  • 240845Z 31006KT 9999 FEW030 17/10 Q1014
  • 240815Z 35006KT 9999 FEW030 17/10 Q1014
  • 240745Z 30003KT 9999 FEW026 16/10 Q1014

TAF TAF LHPP
Valide du 24 à 09h jusqu'au 24 à 18h UTC


240815Z 2409/2418 29007KT 9999 SCT040
BECMG 2412/2415 01009KT CAVOK
Pas de NOTAMs connus pour ce terrain.
1 SIGMET publié pour la FIR Budapest (LHCC) :
 
Orages noyés dans la masse
LHCC SIGMET 01 VALID 241030/241230 LHBM
LHCC BUDAPEST FIR EMBD TS OBS WI N4815 E02233 - N4650 E01959 - N4607 E01957 - N4607 E02054 - N4617 E02116 - N4745 E02227 - N4815 E02233 TOP FL300 STNR NC=



MET'MAP, la Météo Aéronautique d'un coup d'oeil ! - Copyright ORBIFLY Décembre 2007 - Disclaimer

ORBIFLY MET'MAP TEAM :

Programmation & Développement : Alexandra Zaïnal
Conception & Développement : Baudouin d'Aumeries
Co-Programmation & Développement : Marc-Olivier Méhu
Soutien technique & logistique : Manuel Goepfert

Contact : metmap@orbifly.com




SOURCES & CREDITS :

   NOAA